Airport View

Enter AWOS ICAO identifier for current METAR.

ex. KFNL

KSGT 100156Z AUTO 28006KT 10SM CLR 24/23 A2991 RMK AO2 SLP126 T02390228

10 Jul 2020 02:17

Frequency: 119.025

Phone: 870-673-1884

Other Area AWOS: KPBF - KLIT - KLRF - KSRC

TAF KPBF 092320Z 1000/1024 23006KT P6SM VCTS SCT025CB BKN050 FM100200 25004KT P6SM SCT050 OVC250 FM101400 28005KT P6SM BKN250 FM101800 24004KT P6SM SCT050 BKN250